Terminal Aerodrome Forecast
Issued by NWS

Home | Current Version | Previous Version | Text Only | Print | Product List | Glossary On
Versions: 1 2 3 4 5 6 7 8 9 10 11 12 13 14 15 16 17 18
000
FTUS46 KSEW 251700
TAFPAE
TAF
KPAE 251731Z 2518/2618 VRB04KT P6SM FEW011 SCT040
     FM251900 32004KT P6SM SCT040
     FM252200 31006KT P6SM FEW050
     FM260600 02003KT P6SM SCT050
     FM261300 VRB04KT P6SM SCT010=

USA.gov is the U.S. government's official web portal to all federal, state and local government web resources and services.